createdAt,value
2018-06-11T00:00:42.484Z,99498.00
2018-06-11T00:03:10.137Z,99508.00
2018-06-11T00:05:37.798Z,99512.00
2018-06-11T00:08:05.486Z,99515.00
2018-06-11T00:10:33.145Z,99517.00
2018-06-11T00:13:00.784Z,99518.00
2018-06-11T00:15:28.414Z,99522.00
2018-06-11T00:17:56.077Z,99518.00
2018-06-11T00:20:23.880Z,99515.00
2018-06-11T00:22:51.578Z,99512.00
2018-06-11T00:25:19.166Z,99512.00
2018-06-11T00:27:46.881Z,99513.00
2018-06-11T00:30:14.460Z,99511.00
2018-06-11T00:32:42.132Z,99510.00
2018-06-11T00:35:09.744Z,99515.00
2018-06-11T00:37:37.370Z,99525.00
2018-06-11T00:40:05.029Z,99532.00
2018-06-11T00:42:32.661Z,99526.00
2018-06-11T00:45:00.302Z,99524.00
2018-06-11T00:47:28.004Z,99527.00
2018-06-11T00:49:55.683Z,99531.00
2018-06-11T00:52:23.293Z,99534.00
2018-06-11T00:54:50.873Z,99533.00
2018-06-11T00:57:18.516Z,99538.00
2018-06-11T00:59:46.156Z,99534.00
2018-06-11T01:02:13.784Z,99539.00
2018-06-11T01:04:41.416Z,99536.00
2018-06-11T01:07:10.109Z,99533.00
2018-06-11T01:09:38.792Z,99530.00
2018-06-11T01:12:07.395Z,99530.00
2018-06-11T01:14:35.958Z,99536.00
2018-06-11T01:17:03.905Z,99531.00
2018-06-11T01:19:31.525Z,99530.00
2018-06-11T01:21:59.904Z,99529.00
2018-06-11T01:24:27.541Z,99526.00
2018-06-11T01:26:55.201Z,99530.00
2018-06-11T01:29:22.929Z,99536.00
2018-06-11T01:31:50.635Z,99542.00
2018-06-11T01:34:18.333Z,99538.00
2018-06-11T01:36:45.933Z,99532.00
2018-06-11T01:39:13.572Z,99528.00
2018-06-11T01:41:41.442Z,99530.00
2018-06-11T01:44:09.129Z,99525.00
2018-06-11T01:46:36.820Z,99521.00
2018-06-11T01:49:04.398Z,99516.00
2018-06-11T01:51:32.015Z,99511.00
2018-06-11T01:53:59.644Z,99514.00
2018-06-11T01:56:27.228Z,99507.00
2018-06-11T01:58:54.797Z,99501.00
2018-06-11T02:01:22.459Z,99503.00
2018-06-11T02:03:50.236Z,99506.00
2018-06-11T02:06:17.824Z,99511.00
2018-06-11T02:08:45.426Z,99517.00
2018-06-11T02:11:13.035Z,99520.00
2018-06-11T02:13:40.673Z,99523.00
2018-06-11T02:16:08.295Z,99525.00
2018-06-11T02:18:35.906Z,99525.00
2018-06-11T02:21:03.555Z,99530.00
2018-06-11T02:23:31.438Z,99531.00
2018-06-11T02:25:59.023Z,99527.00
2018-06-11T02:28:26.602Z,99523.00
2018-06-11T02:30:54.238Z,99519.00
2018-06-11T02:33:28.583Z,99523.00
2018-06-11T02:35:56.193Z,99527.00
2018-06-11T02:38:23.882Z,99528.00
2018-06-11T02:40:51.529Z,99526.00
2018-06-11T02:43:19.208Z,99521.00
2018-06-11T02:45:46.848Z,99523.00
2018-06-11T02:48:14.462Z,99530.00
2018-06-11T02:50:42.099Z,99529.00
2018-06-11T02:53:09.728Z,99535.00
2018-06-11T02:55:37.351Z,99530.00
2018-06-11T02:58:05.065Z,99535.00
2018-06-11T03:00:32.753Z,99540.00
2018-06-11T03:03:00.396Z,99545.00
2018-06-11T03:05:28.229Z,99538.00
2018-06-11T03:07:55.841Z,99546.00
2018-06-11T03:10:23.511Z,99548.00
2018-06-11T03:12:51.172Z,99556.00
2018-06-11T03:15:18.755Z,99553.00
2018-06-11T03:17:46.394Z,99551.00
2018-06-11T03:20:14.088Z,99554.00
2018-06-11T03:22:41.749Z,99559.00
2018-06-11T03:25:09.372Z,99564.00
2018-06-11T03:27:37.025Z,99562.00
2018-06-11T03:30:04.664Z,99563.00
2018-06-11T03:32:32.284Z,99565.00
2018-06-11T03:54:31.171Z,99569.00
2018-06-11T03:56:58.763Z,99565.00
2018-06-11T03:59:26.400Z,99575.00
2018-06-11T04:01:53.990Z,99582.00
2018-06-11T04:04:21.612Z,99586.00
2018-06-11T04:06:49.263Z,99594.00
2018-06-11T04:09:16.858Z,99598.00
2018-06-11T04:11:44.816Z,99596.00
2018-06-11T04:14:12.521Z,99596.00
2018-06-11T04:16:40.395Z,99591.00
2018-06-11T04:19:08.214Z,99591.00
2018-06-11T04:21:35.835Z,99587.00
2018-06-11T04:24:03.663Z,99582.00
2018-06-11T04:26:31.248Z,99587.00
2018-06-11T04:28:59.010Z,99593.00
2018-06-11T04:31:26.595Z,99588.00
2018-06-11T04:33:54.309Z,99582.00
2018-06-11T04:36:21.931Z,99591.00
2018-06-11T04:38:56.390Z,99589.00
2018-06-11T04:41:25.147Z,99584.00
2018-06-11T04:43:52.803Z,99589.00
2018-06-11T04:46:20.420Z,99585.00
2018-06-11T04:48:48.060Z,99585.00
2018-06-11T04:51:15.688Z,99592.00
2018-06-11T04:53:43.299Z,99594.00
2018-06-11T04:56:10.935Z,99601.00
2018-06-11T04:58:38.544Z,99603.00
2018-06-11T05:01:06.145Z,99601.00
2018-06-11T05:03:33.745Z,99597.00
2018-06-11T05:06:01.394Z,99598.00
2018-06-11T05:08:28.983Z,99589.00
2018-06-11T05:10:56.581Z,99594.00
2018-06-11T05:13:24.357Z,99595.00
2018-06-11T05:15:52.042Z,99600.00
2018-06-11T05:18:19.674Z,99601.00
2018-06-11T05:20:47.300Z,99598.00
2018-06-11T05:23:14.928Z,99600.00
2018-06-11T05:25:42.609Z,99598.00
2018-06-11T05:28:10.200Z,99595.00
2018-06-11T05:30:37.852Z,99606.00
2018-06-11T05:33:05.542Z,99602.00
2018-06-11T05:35:33.123Z,99603.00
2018-06-11T05:38:00.800Z,99608.00
2018-06-11T05:40:28.582Z,99602.00
2018-06-11T05:42:56.116Z,99605.00
2018-06-11T05:45:24.123Z,99606.00
2018-06-11T05:47:51.813Z,99612.00
2018-06-11T05:50:19.424Z,99610.00
2018-06-11T05:52:47.060Z,99618.00
2018-06-11T05:55:14.705Z,99615.00
2018-06-11T05:57:42.422Z,99611.00
2018-06-11T06:00:10.178Z,99614.00
2018-06-11T06:02:37.804Z,99616.00
2018-06-11T06:05:05.413Z,99627.00
2018-06-11T06:07:33.101Z,99626.00
2018-06-11T06:10:00.780Z,99631.00
2018-06-11T06:12:28.433Z,99626.00
2018-06-11T06:14:56.515Z,99626.00
2018-06-11T06:17:24.149Z,99632.00
2018-06-11T06:19:51.775Z,99634.00
2018-06-11T06:22:19.413Z,99639.00
2018-06-11T06:24:47.415Z,99634.00
2018-06-11T06:27:15.018Z,99638.00
2018-06-11T06:29:42.754Z,99637.00
2018-06-11T06:32:10.401Z,99628.00
2018-06-11T06:34:38.017Z,99625.00
2018-06-11T06:37:05.693Z,99627.00
2018-06-11T06:39:33.295Z,99637.00
2018-06-11T06:42:00.973Z,99636.00
2018-06-11T06:44:28.598Z,99639.00
2018-06-11T06:46:56.680Z,99637.00
2018-06-11T06:49:24.315Z,99636.00
2018-06-11T06:51:52.060Z,99631.00
2018-06-11T06:54:19.695Z,99624.00
2018-06-11T06:56:47.287Z,99620.00
2018-06-11T06:59:14.969Z,99619.00
2018-06-11T07:01:42.574Z,99629.00
2018-06-11T07:04:10.260Z,99626.00
2018-06-11T07:06:37.890Z,99619.00
2018-06-11T07:09:07.275Z,99615.00
2018-06-11T07:11:35.421Z,99613.00
2018-06-11T07:14:03.935Z,99615.00
2018-06-11T07:16:31.572Z,99610.00
2018-06-11T07:18:59.920Z,99613.00
2018-06-11T07:21:27.516Z,99610.00
2018-06-11T07:23:55.153Z,99612.00
2018-06-11T07:26:22.752Z,99609.00
2018-06-11T07:28:51.460Z,99611.00
2018-06-11T07:31:19.164Z,99602.00
2018-06-11T07:33:46.861Z,99602.00
2018-06-11T07:36:14.483Z,99596.00
2018-06-11T07:38:42.157Z,99597.00
2018-06-11T07:41:09.764Z,99598.00
2018-06-11T07:43:37.356Z,99591.00
2018-06-11T07:46:05.041Z,99593.00
2018-06-11T07:48:32.727Z,99601.00
2018-06-11T07:51:00.342Z,99596.00
2018-06-11T07:53:27.956Z,99603.00
2018-06-11T07:55:55.576Z,99602.00
2018-06-11T07:58:23.198Z,99601.00
2018-06-11T08:00:50.810Z,99603.00
2018-06-11T08:03:18.411Z,99601.00
2018-06-11T08:05:46.412Z,99597.00
2018-06-11T08:08:14.011Z,99600.00
2018-06-11T08:10:41.695Z,99601.00
2018-06-11T08:13:09.291Z,99599.00
2018-06-11T08:15:36.945Z,99600.00
2018-06-11T08:18:04.672Z,99594.00
2018-06-11T08:20:32.292Z,99598.00
2018-06-11T08:22:59.936Z,99604.00
2018-06-11T08:25:27.564Z,99608.00
2018-06-11T08:27:55.237Z,99612.00
2018-06-11T08:30:22.817Z,99611.00
2018-06-11T08:32:50.434Z,99606.00
2018-06-11T08:35:18.047Z,99614.00
2018-06-11T08:37:45.660Z,99607.00
2018-06-11T08:40:13.276Z,99608.00
2018-06-11T08:42:41.064Z,99609.00
2018-06-11T08:45:08.701Z,99609.00
2018-06-11T08:47:36.380Z,99605.00
2018-06-11T08:50:04.073Z,99614.00
2018-06-11T08:52:31.662Z,99615.00
2018-06-11T08:54:59.264Z,99629.00
2018-06-11T08:57:26.851Z,99636.00
2018-06-11T08:59:54.521Z,99640.00
2018-06-11T09:02:22.139Z,99641.00
2018-06-11T09:04:49.753Z,99645.00
2018-06-11T09:07:17.471Z,99641.00
2018-06-11T09:09:45.072Z,99639.00
2018-06-11T09:12:12.725Z,99642.00
2018-06-11T09:14:40.399Z,99650.00
2018-06-11T09:17:08.012Z,99650.00
2018-06-11T09:19:35.680Z,99651.00
2018-06-11T09:22:03.304Z,99645.00
2018-06-11T09:24:30.940Z,99648.00
2018-06-11T09:26:58.579Z,99638.00
2018-06-11T09:29:26.272Z,99633.00
2018-06-11T09:31:53.980Z,99631.00
2018-06-11T09:34:21.658Z,99634.00
2018-06-11T09:36:49.269Z,99634.00
2018-06-11T09:39:16.876Z,99634.00
2018-06-11T09:41:44.529Z,99633.00
2018-06-11T09:44:12.157Z,99635.00
2018-06-11T09:46:39.794Z,99640.00
2018-06-11T09:49:07.411Z,99647.00
2018-06-11T09:51:35.054Z,99641.00
2018-06-11T09:54:02.655Z,99639.00
2018-06-11T09:56:30.399Z,99638.00
2018-06-11T09:58:58.285Z,99637.00
2018-06-11T10:01:25.883Z,99634.00
2018-06-11T10:03:53.647Z,99637.00
2018-06-11T10:06:21.241Z,99640.00
2018-06-11T10:08:48.841Z,99636.00
2018-06-11T10:11:16.480Z,99639.00
2018-06-11T10:13:44.076Z,99639.00
2018-06-11T10:16:11.828Z,99638.00
2018-06-11T10:18:39.416Z,99639.00
2018-06-11T10:21:07.036Z,99638.00
2018-06-11T10:23:34.720Z,99634.00
2018-06-11T10:26:02.416Z,99634.00
2018-06-11T10:28:30.001Z,99634.00
2018-06-11T10:30:57.647Z,99629.00
2018-06-11T10:33:25.829Z,99624.00
2018-06-11T10:35:53.472Z,99625.00
2018-06-11T10:38:21.139Z,99621.00
2018-06-11T10:40:48.782Z,99624.00
2018-06-11T10:43:16.381Z,99622.00
2018-06-11T10:45:43.982Z,99622.00
2018-06-11T10:48:11.585Z,99620.00
2018-06-11T10:50:39.249Z,99624.00
2018-06-11T10:53:06.879Z,99623.00
2018-06-11T10:55:34.562Z,99616.00
2018-06-11T10:58:02.796Z,99623.00
2018-06-11T11:00:30.392Z,99621.00
2018-06-11T11:02:58.048Z,99618.00
2018-06-11T11:05:25.684Z,99623.00
2018-06-11T11:07:53.333Z,99608.00
2018-06-11T11:10:20.941Z,99616.00
2018-06-11T11:12:48.582Z,99619.00
2018-06-11T11:15:16.205Z,99614.00
2018-06-11T11:17:43.828Z,99613.00
2018-06-11T11:20:11.403Z,99617.00
2018-06-11T11:22:38.972Z,99616.00
2018-06-11T11:25:06.573Z,99612.00
2018-06-11T11:27:34.152Z,99604.00
2018-06-11T11:30:02.865Z,99608.00
2018-06-11T11:32:30.553Z,99611.00
2018-06-11T11:34:58.170Z,99601.00
2018-06-11T11:37:25.763Z,99597.00
2018-06-11T11:39:53.416Z,99589.00
2018-06-11T11:42:21.004Z,99583.00
2018-06-11T11:44:48.590Z,99585.00
2018-06-11T11:47:16.193Z,99586.00
2018-06-11T11:49:43.812Z,99578.00
2018-06-11T11:52:11.433Z,99569.00
2018-06-11T11:54:39.003Z,99574.00
2018-06-11T11:57:06.592Z,99573.00
2018-06-11T11:59:34.181Z,99561.00
2018-06-11T12:02:09.065Z,99553.00
2018-06-11T12:04:36.654Z,99546.00
2018-06-11T12:07:04.248Z,99545.00
2018-06-11T12:09:31.899Z,99540.00
2018-06-11T12:11:59.513Z,99531.00
2018-06-11T12:14:27.186Z,99533.00
2018-06-11T12:16:54.779Z,99532.00
2018-06-11T12:19:22.395Z,99531.00
2018-06-11T12:21:50.049Z,99537.00
2018-06-11T12:24:17.616Z,99540.00
2018-06-11T12:26:45.284Z,99532.00
2018-06-11T12:29:12.854Z,99527.00
2018-06-11T12:31:40.653Z,99517.00
2018-06-11T12:34:08.320Z,99517.00
2018-06-11T12:36:36.020Z,99512.00
2018-06-11T12:39:06.306Z,99508.00
2018-06-11T12:41:33.930Z,99509.00
2018-06-11T12:44:01.610Z,99504.00
2018-06-11T12:46:29.283Z,99501.00
2018-06-11T12:48:56.976Z,99501.00
2018-06-11T12:51:24.591Z,99501.00
2018-06-11T12:53:52.211Z,99495.00
2018-06-11T12:56:19.903Z,99502.00
2018-06-11T13:01:25.364Z,99504.00
2018-06-11T13:03:53.075Z,99491.00
2018-06-11T13:06:21.592Z,99501.00
2018-06-11T13:08:49.312Z,99491.00
2018-06-11T13:11:16.925Z,99483.00
2018-06-11T13:13:44.586Z,99475.00
2018-06-11T13:16:12.164Z,99472.00
2018-06-11T13:18:39.769Z,99468.00
2018-06-11T13:21:07.432Z,99473.00
2018-06-11T13:23:35.059Z,99464.00
2018-06-11T13:26:02.670Z,99457.00
2018-06-11T13:28:30.292Z,99456.00
2018-06-11T13:30:57.897Z,99450.00
2018-06-11T13:33:25.499Z,99442.00
2018-06-11T13:35:53.284Z,99435.00
2018-06-11T13:38:20.878Z,99438.00
2018-06-11T13:40:48.531Z,99440.00
2018-06-11T13:43:16.127Z,99443.00
2018-06-11T13:45:43.734Z,99444.00
2018-06-11T13:48:11.328Z,99442.00
2018-06-11T13:50:38.928Z,99442.00
2018-06-11T13:53:06.526Z,99431.00
2018-06-11T13:55:34.092Z,99425.00
2018-06-11T13:58:01.698Z,99422.00
2018-06-11T14:00:29.332Z,99420.00
2018-06-11T14:02:56.993Z,99411.00
2018-06-11T14:05:24.597Z,99406.00
2018-06-11T14:07:52.613Z,99408.00
2018-06-11T14:10:20.291Z,99407.00
2018-06-11T14:12:47.870Z,99406.00
2018-06-11T14:15:15.490Z,99409.00
2018-06-11T14:17:43.104Z,99421.00
2018-06-11T14:20:10.708Z,99423.00
2018-06-11T14:22:38.287Z,99420.00
2018-06-11T14:25:05.958Z,99416.00
2018-06-11T14:27:33.643Z,99412.00
2018-06-11T14:30:01.230Z,99403.00
2018-06-11T14:32:28.888Z,99395.00
2018-06-11T14:34:56.508Z,99389.00
2018-06-11T14:37:24.391Z,99391.00
2018-06-11T14:39:52.026Z,99381.00
2018-06-11T14:42:19.761Z,99374.00
2018-06-11T14:44:47.440Z,99367.00
2018-06-11T14:47:15.122Z,99366.00
2018-06-11T14:49:42.732Z,99363.00
2018-06-11T14:52:10.384Z,99357.00
2018-06-11T14:54:38.022Z,99347.00
2018-06-11T14:57:05.627Z,99346.00
2018-06-11T14:59:33.264Z,99348.00
2018-06-11T15:02:00.901Z,99338.00
2018-06-11T15:04:28.506Z,99338.00
2018-06-11T15:06:56.124Z,99321.00
2018-06-11T15:09:23.834Z,99325.00
2018-06-11T15:11:51.421Z,99321.00
2018-06-11T15:14:19.020Z,99324.00
2018-06-11T15:16:46.593Z,99324.00
2018-06-11T15:19:14.216Z,99320.00
2018-06-11T15:21:42.931Z,99317.00
2018-06-11T15:24:10.556Z,99318.00
2018-06-11T15:26:38.197Z,99316.00
2018-06-11T15:29:05.777Z,99320.00
2018-06-11T15:31:33.351Z,99322.00
2018-06-11T15:34:01.155Z,99327.00
2018-06-11T15:36:28.781Z,99331.00
2018-06-11T15:38:57.236Z,99338.00
2018-06-11T15:41:24.817Z,99342.00
2018-06-11T15:43:52.855Z,99349.00
2018-06-11T15:46:20.460Z,99349.00
2018-06-11T15:48:48.075Z,99348.00
2018-06-11T15:51:15.684Z,99345.00
2018-06-11T15:53:43.247Z,99345.00
2018-06-11T15:56:10.841Z,99333.00
2018-06-11T15:58:38.420Z,99339.00
2018-06-11T16:01:06.228Z,99337.00
2018-06-11T16:03:33.936Z,99325.00
2018-06-11T16:06:01.588Z,99322.00
2018-06-11T16:08:29.196Z,99313.00
2018-06-11T16:10:56.796Z,99311.00
2018-06-11T16:13:24.412Z,99310.00
2018-06-11T16:15:52.083Z,99300.00
2018-06-11T16:18:19.800Z,99291.00
2018-06-11T16:20:47.394Z,99287.00
2018-06-11T16:23:15.023Z,99286.00
2018-06-11T16:25:42.672Z,99272.00
2018-06-11T16:28:10.257Z,99268.00
2018-06-11T16:30:37.864Z,99258.00
2018-06-11T16:33:05.463Z,99248.00
2018-06-11T16:35:33.044Z,99236.00
2018-06-11T16:38:00.620Z,99232.00
2018-06-11T16:40:28.347Z,99232.00
2018-06-11T16:42:56.154Z,99237.00
2018-06-11T16:45:23.733Z,99245.00
2018-06-11T16:47:51.363Z,99250.00
2018-06-11T16:50:18.973Z,99249.00
2018-06-11T16:52:46.617Z,99252.00
2018-06-11T16:55:14.316Z,99255.00
2018-06-11T16:57:41.960Z,99253.00
2018-06-11T17:00:09.556Z,99246.00
2018-06-11T17:02:37.153Z,99242.00
2018-06-11T17:05:04.800Z,99247.00
2018-06-11T17:07:32.373Z,99241.00
2018-06-11T17:09:59.972Z,99242.00
2018-06-11T17:12:28.335Z,99246.00
2018-06-11T17:14:55.896Z,99245.00
2018-06-11T17:17:23.510Z,99235.00
2018-06-11T17:19:51.167Z,99234.00
2018-06-11T17:22:18.781Z,99237.00
2018-06-11T17:24:46.452Z,99232.00
2018-06-11T17:27:14.048Z,99222.00
2018-06-11T17:29:41.659Z,99214.00
2018-06-11T17:32:09.302Z,99217.00
2018-06-11T17:34:37.132Z,99216.00
2018-06-11T17:37:04.752Z,99208.00
2018-06-11T17:39:32.691Z,99207.00
2018-06-11T17:42:00.423Z,99211.00
2018-06-11T17:44:28.105Z,99209.00
2018-06-11T17:46:55.675Z,99215.00
2018-06-11T17:49:23.351Z,99221.00
2018-06-11T17:51:50.992Z,99219.00
2018-06-11T17:54:18.813Z,99221.00
2018-06-11T17:56:46.389Z,99216.00
2018-06-11T17:59:14.039Z,99214.00
2018-06-11T18:01:42.132Z,99212.00
2018-06-11T18:04:09.817Z,99209.00
2018-06-11T18:06:37.760Z,99208.00
2018-06-11T18:09:07.992Z,99212.00
2018-06-11T18:11:35.977Z,99216.00
2018-06-11T18:14:04.036Z,99222.00
2018-06-11T18:16:31.808Z,99234.00
2018-06-11T18:18:59.700Z,99236.00
2018-06-11T18:21:28.131Z,99237.00
2018-06-11T18:23:56.655Z,99251.00
2018-06-11T18:26:24.810Z,99258.00
2018-06-11T18:28:52.395Z,99251.00
2018-06-11T18:31:20.040Z,99256.00
2018-06-11T18:33:47.628Z,99267.00
2018-06-11T18:36:15.221Z,99269.00
2018-06-11T18:38:42.764Z,99264.00
2018-06-11T18:41:16.443Z,99272.00
2018-06-11T18:43:44.068Z,99269.00
2018-06-11T18:46:11.671Z,99270.00
2018-06-11T18:48:39.259Z,99267.00
2018-06-11T18:51:06.839Z,99266.00
2018-06-11T18:53:34.448Z,99264.00
2018-06-11T18:56:02.052Z,99261.00
2018-06-11T18:58:30.362Z,99254.00
2018-06-11T19:00:57.992Z,99256.00
2018-06-11T19:05:55.538Z,99240.00
2018-06-11T19:08:23.307Z,99236.00
2018-06-11T19:10:50.989Z,99228.00
2018-06-11T19:13:18.585Z,99220.00
2018-06-11T19:15:46.196Z,99227.00
2018-06-11T19:18:14.057Z,99225.00
2018-06-11T19:20:41.656Z,99221.00
2018-06-11T19:23:09.219Z,99217.00
2018-06-11T19:25:36.808Z,99209.00
2018-06-11T19:28:04.479Z,99205.00
2018-06-11T19:30:32.313Z,99205.00
2018-06-11T19:33:00.205Z,99206.00
2018-06-11T19:35:28.036Z,99212.00
2018-06-11T19:37:55.587Z,99209.00
2018-06-11T19:40:23.261Z,99208.00
2018-06-11T19:42:50.995Z,99203.00
2018-06-11T19:45:19.851Z,99203.00
2018-06-11T19:47:48.127Z,99203.00
2018-06-11T19:50:16.629Z,99202.00
2018-06-11T19:52:44.116Z,99203.00
2018-06-11T19:55:11.772Z,99211.00
2018-06-11T19:57:39.363Z,99209.00
2018-06-11T20:00:07.042Z,99214.00
2018-06-11T20:02:34.603Z,99211.00
2018-06-11T20:05:02.220Z,99217.00
2018-06-11T20:07:29.772Z,99225.00
2018-06-11T20:09:57.746Z,99229.00
2018-06-11T20:12:25.297Z,99242.00
2018-06-11T20:14:52.880Z,99253.00
2018-06-11T20:17:20.432Z,99252.00
2018-06-11T20:19:47.992Z,99250.00
2018-06-11T20:22:15.606Z,99248.00
2018-06-11T20:24:43.167Z,99246.00
2018-06-11T20:27:10.744Z,99246.00
2018-06-11T20:29:38.324Z,99247.00
2018-06-11T20:32:05.959Z,99243.00
2018-06-11T20:34:33.531Z,99244.00
2018-06-11T20:37:01.084Z,99247.00
2018-06-11T20:39:28.756Z,99251.00
2018-06-11T20:41:56.337Z,99257.00
2018-06-11T20:44:23.872Z,99259.00
2018-06-11T20:46:51.518Z,99246.00
2018-06-11T20:49:19.092Z,99248.00
2018-06-11T20:51:46.703Z,99248.00
2018-06-11T20:54:14.248Z,99245.00
2018-06-11T20:56:41.845Z,99244.00
2018-06-11T20:59:09.432Z,99241.00
2018-06-11T21:01:37.024Z,99241.00
2018-06-11T21:04:04.627Z,99237.00
2018-06-11T21:06:32.235Z,99248.00
2018-06-11T21:09:07.020Z,99249.00
2018-06-11T21:11:35.046Z,99250.00
2018-06-11T21:14:02.653Z,99250.00
2018-06-11T21:16:30.236Z,99247.00
2018-06-11T21:18:57.844Z,99250.00
2018-06-11T21:21:25.440Z,99248.00
2018-06-11T21:23:53.039Z,99248.00
2018-06-11T21:26:20.567Z,99252.00
2018-06-11T21:28:48.129Z,99248.00
2018-06-11T21:31:15.749Z,99244.00
2018-06-11T21:33:43.289Z,99239.00
2018-06-11T21:36:10.881Z,99238.00
2018-06-11T21:38:38.558Z,99238.00
2018-06-11T21:41:06.184Z,99235.00
2018-06-11T21:43:33.747Z,99239.00
2018-06-11T21:46:01.340Z,99235.00
2018-06-11T21:48:28.941Z,99236.00
2018-06-11T21:50:56.541Z,99237.00
2018-06-11T21:53:24.157Z,99238.00
2018-06-11T21:55:51.824Z,99235.00
2018-06-11T21:58:19.428Z,99237.00
2018-06-11T22:00:47.037Z,99235.00
2018-06-11T22:03:14.642Z,99230.00
2018-06-11T22:05:42.196Z,99222.00
2018-06-11T22:08:10.029Z,99216.00
2018-06-11T22:10:37.635Z,99210.00
2018-06-11T22:13:05.426Z,99207.00
2018-06-11T22:15:33.075Z,99204.00
2018-06-11T22:18:00.652Z,99204.00
2018-06-11T22:20:28.247Z,99201.00
2018-06-11T22:22:55.807Z,99203.00
2018-06-11T22:25:23.379Z,99205.00
2018-06-11T22:27:50.948Z,99206.00
2018-06-11T22:30:18.594Z,99208.00
2018-06-11T22:32:46.157Z,99210.00
2018-06-11T22:35:13.725Z,99209.00
2018-06-11T22:37:41.345Z,99212.00
2018-06-11T22:40:09.146Z,99214.00
2018-06-11T22:42:36.707Z,99202.00
2018-06-11T22:45:04.292Z,99198.00
2018-06-11T22:47:31.849Z,99196.00
2018-06-11T22:49:59.490Z,99200.00
2018-06-11T22:52:27.088Z,99199.00
2018-06-11T22:54:54.700Z,99195.00
2018-06-11T22:57:22.292Z,99199.00
2018-06-11T22:59:49.871Z,99199.00
2018-06-11T23:02:17.441Z,99204.00
2018-06-11T23:04:45.031Z,99201.00
2018-06-11T23:07:12.617Z,99204.00
2018-06-11T23:09:40.176Z,99196.00
2018-06-11T23:12:07.984Z,99193.00
2018-06-11T23:14:35.509Z,99192.00
2018-06-11T23:17:03.109Z,99190.00
2018-06-11T23:19:30.680Z,99191.00
2018-06-11T23:21:58.314Z,99192.00
2018-06-11T23:24:25.909Z,99193.00
2018-06-11T23:26:53.509Z,99193.00
2018-06-11T23:29:21.126Z,99191.00
2018-06-11T23:31:48.700Z,99184.00
2018-06-11T23:34:16.268Z,99185.00
2018-06-11T23:36:43.849Z,99181.00
2018-06-11T23:39:11.419Z,99181.00
2018-06-11T23:41:38.966Z,99187.00
2018-06-11T23:44:06.580Z,99191.00
2018-06-11T23:46:34.139Z,99192.00
2018-06-11T23:49:02.084Z,99189.00
2018-06-11T23:51:29.632Z,99191.00
2018-06-11T23:53:57.195Z,99188.00
2018-06-11T23:56:24.851Z,99187.00
2018-06-11T23:58:52.444Z,99181.00
